createdAt,value
2019-01-14T00:00:02.250Z,1.00
2019-01-14T00:02:32.163Z,1.00
2019-01-14T00:05:02.179Z,1.20
2019-01-14T00:07:32.086Z,1.20
2019-01-14T00:10:02.085Z,1.10
2019-01-14T00:12:32.113Z,1.20
2019-01-14T00:15:02.025Z,1.23
2019-01-14T00:17:32.234Z,1.30
2019-01-14T00:20:02.155Z,1.30
2019-01-14T00:22:32.216Z,1.37
2019-01-14T00:25:02.372Z,1.33
2019-01-14T00:27:32.281Z,1.40
2019-01-14T00:30:02.196Z,1.50
2019-01-14T00:32:33.297Z,1.50
2019-01-14T00:35:03.693Z,1.50
2019-01-14T00:37:33.804Z,1.40
2019-01-14T00:40:04.807Z,1.70
2019-01-14T00:42:35.101Z,2.10
2019-01-14T00:45:06.492Z,2.03
2019-01-14T00:47:36.885Z,1.93
2019-01-14T00:50:11.628Z,1.97
2019-01-14T00:52:41.543Z,1.93
2019-01-14T00:55:13.048Z,2.00
2019-01-14T00:57:43.233Z,2.07
2019-01-14T01:00:17.730Z,1.70
2019-01-14T01:02:48.621Z,1.67
2019-01-14T01:05:18.675Z,1.70
2019-01-14T01:07:49.180Z,1.60
2019-01-14T01:10:20.536Z,1.80
2019-01-14T01:12:50.479Z,1.30
2019-01-14T01:15:20.631Z,1.70
2019-01-14T01:17:50.797Z,1.47
2019-01-14T01:20:21.495Z,1.50
2019-01-14T01:22:51.706Z,1.57
2019-01-14T01:25:21.618Z,1.30
2019-01-14T01:27:51.536Z,1.27
2019-01-14T01:30:21.644Z,1.27
2019-01-14T01:32:52.002Z,1.00
2019-01-14T01:35:21.962Z,1.37
2019-01-14T01:37:51.973Z,1.00
2019-01-14T01:40:22.575Z,1.00
2019-01-14T01:42:52.879Z,1.03
2019-01-14T01:45:23.388Z,1.10
2019-01-14T01:47:53.304Z,1.10
2019-01-14T01:50:23.604Z,1.30
2019-01-14T01:52:53.518Z,1.10
2019-01-14T01:55:23.431Z,1.20
2019-01-14T01:57:53.638Z,1.10
2019-01-14T02:00:24.240Z,1.10
2019-01-14T02:02:54.257Z,1.00
2019-01-14T02:05:24.165Z,1.07
2019-01-14T02:07:54.571Z,1.20
2019-01-14T02:10:25.276Z,1.10
2019-01-14T02:12:55.544Z,1.03
2019-01-14T02:15:25.689Z,1.10
2019-01-14T02:17:55.600Z,1.20
2019-01-14T02:20:26.210Z,1.10
2019-01-14T02:22:56.430Z,1.10
2019-01-14T02:25:26.322Z,1.10
2019-01-14T02:27:56.237Z,1.30
2019-01-14T02:30:26.154Z,0.90
2019-01-14T02:32:56.555Z,1.00
2019-01-14T02:35:26.568Z,0.93
2019-01-14T02:37:56.484Z,1.00
2019-01-14T02:40:26.395Z,1.00
2019-01-14T02:42:56.307Z,1.07
2019-01-14T02:45:26.419Z,1.00
2019-01-14T02:47:56.330Z,1.33
2019-01-14T02:50:26.248Z,1.27
2019-01-14T02:52:56.211Z,1.00
2019-01-14T02:55:26.464Z,1.07
2019-01-14T02:57:56.378Z,1.10
2019-01-14T03:00:27.769Z,0.93
2019-01-14T03:02:57.880Z,1.10
2019-01-14T03:05:28.088Z,1.00
2019-01-14T03:36:40.184Z,1.00
2019-01-14T03:39:10.195Z,0.93
2019-01-14T03:41:40.404Z,0.90
2019-01-14T03:44:10.416Z,1.07
2019-01-14T03:46:41.293Z,1.13
2019-01-14T03:49:11.227Z,1.10
2019-01-14T03:51:41.137Z,1.30
2019-01-14T03:54:11.735Z,1.17
2019-01-14T03:56:41.851Z,1.20
2019-01-14T03:59:11.768Z,1.20
2019-01-14T04:01:41.882Z,1.20
2019-01-14T04:04:11.942Z,1.40
2019-01-14T04:06:42.193Z,1.30
2019-01-14T04:09:12.601Z,1.33
2019-01-14T04:11:42.811Z,1.33
2019-01-14T04:14:12.918Z,1.40
2019-01-14T04:16:42.837Z,1.43
2019-01-14T04:19:12.940Z,1.63
2019-01-14T04:21:42.856Z,1.17
2019-01-14T04:24:12.768Z,1.10
2019-01-14T04:26:42.794Z,1.33
2019-01-14T04:29:12.992Z,1.10
2019-01-14T04:31:43.209Z,1.13
2019-01-14T04:34:13.110Z,1.27
2019-01-14T04:36:43.022Z,1.30
2019-01-14T04:39:13.525Z,0.90
2019-01-14T04:41:43.538Z,1.20
2019-01-14T04:44:13.451Z,1.10
2019-01-14T04:46:43.367Z,1.30
2019-01-14T04:49:13.282Z,1.27
2019-01-14T04:51:43.191Z,1.40
2019-01-14T04:54:13.112Z,1.30
2019-01-14T04:56:43.017Z,1.47
2019-01-14T04:59:12.935Z,1.17
2019-01-14T05:01:42.846Z,1.70
2019-01-14T05:04:12.762Z,1.60
2019-01-14T05:06:42.674Z,1.63
2019-01-14T05:09:12.584Z,1.47
2019-01-14T05:11:42.599Z,1.40
2019-01-14T05:14:13.000Z,1.30
2019-01-14T05:16:42.920Z,1.67
2019-01-14T05:19:12.830Z,1.60
2019-01-14T05:21:43.037Z,1.70
2019-01-14T05:24:12.953Z,1.40
2019-01-14T05:26:42.865Z,1.60
2019-01-14T05:29:12.778Z,1.60
2019-01-14T05:31:42.691Z,1.50
2019-01-14T05:34:12.703Z,1.60
2019-01-14T05:36:42.817Z,1.37
2019-01-14T05:39:12.729Z,1.60
2019-01-14T05:41:42.837Z,1.60
2019-01-14T05:44:13.142Z,1.37
2019-01-14T05:46:43.058Z,1.67
2019-01-14T05:49:12.971Z,2.00
2019-01-14T05:51:42.884Z,1.60
2019-01-14T05:54:12.901Z,1.60
2019-01-14T05:56:42.816Z,1.67
2019-01-14T05:59:12.724Z,1.73
2019-01-14T06:01:42.636Z,1.40
2019-01-14T06:04:12.551Z,1.67
2019-01-14T06:06:42.464Z,1.50
2019-01-14T06:09:12.673Z,1.40
2019-01-14T06:11:42.879Z,1.70
2019-01-14T06:14:12.794Z,1.50
2019-01-14T06:16:42.856Z,1.50
2019-01-14T06:19:13.113Z,1.70
2019-01-14T06:21:43.321Z,1.87
2019-01-14T06:24:13.233Z,1.80
2019-01-14T06:26:43.146Z,1.70
2019-01-14T06:29:13.060Z,1.73
2019-01-14T06:31:43.660Z,1.60
2019-01-14T06:34:13.576Z,1.50
2019-01-14T06:36:43.926Z,1.50
2019-01-14T06:39:14.003Z,1.60
2019-01-14T06:41:44.361Z,1.60
2019-01-14T06:44:14.314Z,1.50
2019-01-14T06:46:44.519Z,1.47
2019-01-14T06:49:14.532Z,2.10
2019-01-14T06:51:44.445Z,1.77
2019-01-14T06:54:14.455Z,1.80
2019-01-14T06:56:44.277Z,1.60
2019-01-14T06:59:14.186Z,1.70
2019-01-14T07:01:44.480Z,1.63
2019-01-14T07:04:14.405Z,1.70
2019-01-14T07:06:44.257Z,1.50
2019-01-14T07:09:14.231Z,1.67
2019-01-14T07:11:45.227Z,1.73
2019-01-14T07:14:15.438Z,1.70
2019-01-14T07:16:45.745Z,2.10
2019-01-14T07:19:15.717Z,2.20
2019-01-14T07:21:46.062Z,2.40
2019-01-14T07:24:16.564Z,2.07
2019-01-14T07:26:46.880Z,1.90
2019-01-14T07:29:16.960Z,1.80
2019-01-14T07:31:46.900Z,1.80
2019-01-14T07:34:16.813Z,1.60
2019-01-14T07:36:46.720Z,1.50
2019-01-14T07:39:16.736Z,1.70
2019-01-14T07:50:15.369Z,1.60
2019-01-14T07:52:45.970Z,1.73
2019-01-14T07:55:15.982Z,1.97
2019-01-14T07:57:45.992Z,2.27
2019-01-14T08:00:22.466Z,1.73
2019-01-14T08:02:53.194Z,2.00
2019-01-14T08:05:23.599Z,1.70
2019-01-14T08:07:53.610Z,1.77
2019-01-14T08:10:23.623Z,3.90
2019-01-14T08:12:53.633Z,2.40
2019-01-14T08:15:23.832Z,1.50
2019-01-14T08:17:53.756Z,1.33
2019-01-14T08:20:23.767Z,1.60
2019-01-14T08:22:54.072Z,1.77
2019-01-14T08:25:23.987Z,1.90
2019-01-14T08:27:53.906Z,1.90
2019-01-14T08:30:24.797Z,1.80
2019-01-14T08:32:55.003Z,1.97
2019-01-14T08:35:24.919Z,2.00
2019-01-14T08:37:54.836Z,2.20
2019-01-14T08:40:25.024Z,2.30
2019-01-14T08:42:54.952Z,1.90
2019-01-14T09:07:43.570Z,2.20
2019-01-14T09:15:47.724Z,1.30
2019-01-14T09:18:17.633Z,1.20
2019-01-14T09:20:47.544Z,1.20
2019-01-14T09:23:17.574Z,1.20
2019-01-14T09:25:53.740Z,1.20
2019-01-14T09:34:07.036Z,1.30
2019-01-14T09:36:37.064Z,2.27
2019-01-14T09:39:09.432Z,1.60
2019-01-14T09:41:39.346Z,1.50
2019-01-14T09:44:09.456Z,1.07
2019-01-14T09:46:39.570Z,1.30
2019-01-14T09:49:09.484Z,1.60
2019-01-14T09:51:39.594Z,1.50
2019-01-14T09:54:09.613Z,2.30
2019-01-14T09:56:40.104Z,1.70
2019-01-14T09:59:10.421Z,1.27
2019-01-14T10:01:40.324Z,1.60
2019-01-14T10:04:10.533Z,2.63
2019-01-14T10:06:40.626Z,1.80
2019-01-14T10:09:10.949Z,1.40
2019-01-14T10:11:40.863Z,1.80
2019-01-14T10:14:10.973Z,2.30
2019-01-14T10:16:42.362Z,2.17
2019-01-14T10:19:12.275Z,2.47
2019-01-14T10:21:42.385Z,1.80
2019-01-14T10:24:12.298Z,1.90
2019-01-14T10:26:42.214Z,2.30
2019-01-14T10:29:12.129Z,2.00
2019-01-14T10:31:42.243Z,1.57
2019-01-14T10:34:12.444Z,1.67
2019-01-14T10:36:42.457Z,1.63
2019-01-14T10:39:12.664Z,1.70
2019-01-14T10:41:42.580Z,1.53
2019-01-14T10:44:12.689Z,1.20
2019-01-14T10:46:42.699Z,1.20
2019-01-14T10:49:13.808Z,1.07
2019-01-14T10:51:43.730Z,1.20
2019-01-14T10:54:13.644Z,1.20
2019-01-14T10:56:44.211Z,1.37
2019-01-14T10:59:14.989Z,1.50
2019-01-14T11:01:45.429Z,1.60
2019-01-14T11:04:15.689Z,1.40
2019-01-14T11:06:45.644Z,1.77
2019-01-14T11:09:16.030Z,1.50
2019-01-14T11:11:46.258Z,1.80
2019-01-14T11:14:16.564Z,1.40
2019-01-14T11:16:46.476Z,1.60
2019-01-14T11:19:16.491Z,1.17
2019-01-14T11:21:46.402Z,1.47
2019-01-14T11:24:16.283Z,1.20
2019-01-14T11:26:46.228Z,1.60
2019-01-14T11:29:16.535Z,1.83
2019-01-14T11:31:46.659Z,1.50
2019-01-14T11:34:16.659Z,0.90
2019-01-14T11:36:46.572Z,1.40
2019-01-14T11:39:18.451Z,1.50
2019-01-14T11:54:15.934Z,1.67
2019-01-14T12:11:19.375Z,1.50
2019-01-14T12:13:49.321Z,1.33
2019-01-14T12:16:19.237Z,1.33
2019-01-14T12:18:49.347Z,1.40
2019-01-14T12:21:19.356Z,1.60
2019-01-14T12:23:49.563Z,1.77
2019-01-14T12:26:19.478Z,1.67
2019-01-14T12:28:49.389Z,1.77
2019-01-14T12:31:19.304Z,1.40
2019-01-14T12:33:49.320Z,1.50
2019-01-14T12:36:19.230Z,1.80
2019-01-14T13:03:55.154Z,4.00
2019-01-14T13:06:25.173Z,7.97
2019-01-14T13:08:55.188Z,3.47
2019-01-14T13:11:25.094Z,4.00
2019-01-14T13:13:58.153Z,4.03
2019-01-14T13:16:28.066Z,2.40
2019-01-14T13:18:57.981Z,2.20
2019-01-14T13:21:27.894Z,3.40
2019-01-14T13:23:58.102Z,2.40
2019-01-14T13:26:28.014Z,1.80
2019-01-14T13:28:58.025Z,3.30
2019-01-14T13:31:27.941Z,4.27
2019-01-14T13:33:57.853Z,3.90
2019-01-14T13:36:27.933Z,2.53
2019-01-14T13:38:58.156Z,4.93
2019-01-14T13:41:28.085Z,3.10
2019-01-14T13:43:58.194Z,6.70
2019-01-14T13:46:28.108Z,5.17
2019-01-14T13:48:58.021Z,5.20
2019-01-14T13:51:27.933Z,4.17
2019-01-14T13:53:58.439Z,2.10
2019-01-14T13:56:28.353Z,2.47
2019-01-14T13:58:58.183Z,2.33
2019-01-14T14:01:28.183Z,2.57
2019-01-14T14:03:58.095Z,2.57
2019-01-14T14:06:27.903Z,1.80
2019-01-14T14:08:57.820Z,2.50
2019-01-14T14:11:28.127Z,2.40
2019-01-14T14:13:58.044Z,2.70
2019-01-14T14:16:27.923Z,2.13
2019-01-14T14:18:58.161Z,2.00
2019-01-14T14:21:28.074Z,2.20
2019-01-14T14:23:58.186Z,2.37
2019-01-14T14:26:28.098Z,2.00
2019-01-14T14:28:58.115Z,1.70
2019-01-14T14:31:28.030Z,1.87
2019-01-14T14:33:58.233Z,1.70
2019-01-14T14:36:28.647Z,1.80
2019-01-14T14:38:58.552Z,2.17
2019-01-14T14:41:28.465Z,1.70
2019-01-14T14:43:58.378Z,1.73
2019-01-14T14:46:28.292Z,1.80
2019-01-14T14:48:58.205Z,2.17
2019-01-14T14:51:28.120Z,2.30
2019-01-14T14:53:58.230Z,2.47
2019-01-14T14:56:28.346Z,2.30
2019-01-14T14:58:58.255Z,2.20
2019-01-14T15:01:28.460Z,1.90
2019-01-14T15:03:58.376Z,1.90
2019-01-14T15:06:28.421Z,2.10
2019-01-14T15:08:58.298Z,2.00
2019-01-14T15:11:28.521Z,1.87
2019-01-14T15:13:58.418Z,2.10
2019-01-14T15:16:28.333Z,1.77
2019-01-14T15:18:58.248Z,2.20
2019-01-14T15:21:28.454Z,2.20
2019-01-14T15:23:58.251Z,2.60
2019-01-14T15:26:28.187Z,2.47
2019-01-14T15:28:58.391Z,1.93
2019-01-14T15:31:28.307Z,1.80
2019-01-14T15:33:58.418Z,1.60
2019-01-14T15:36:28.328Z,1.80
2019-01-14T15:38:58.537Z,1.80
2019-01-14T15:41:28.453Z,1.73
2019-01-14T15:43:58.661Z,1.80
2019-01-14T15:46:28.574Z,1.90
2019-01-14T15:48:58.486Z,1.60
2019-01-14T15:51:28.601Z,1.57
2019-01-14T15:53:58.806Z,1.40
2019-01-14T15:56:28.717Z,1.67
2019-01-14T15:58:58.639Z,1.90
2019-01-14T16:01:28.649Z,1.80
2019-01-14T16:03:58.960Z,2.00
2019-01-14T16:06:28.863Z,2.10
2019-01-14T16:08:59.072Z,2.03
2019-01-14T16:11:29.083Z,1.80
2019-01-14T16:13:59.291Z,1.70
2019-01-14T16:31:51.003Z,3.50
2019-01-14T16:34:20.919Z,2.20
2019-01-14T16:36:50.827Z,2.10
2019-01-14T16:39:20.740Z,2.30
2019-01-14T16:41:50.948Z,2.60
2019-01-14T16:44:21.056Z,2.50
2019-01-14T16:46:51.264Z,2.17
2019-01-14T16:49:21.475Z,1.97
2019-01-14T16:51:51.388Z,3.00
2019-01-14T16:54:21.597Z,10.10
2019-01-14T16:56:51.627Z,3.57
2019-01-14T16:59:21.620Z,1.93
2019-01-14T17:01:51.550Z,2.17
2019-01-14T17:04:21.446Z,3.20
2019-01-14T17:06:51.358Z,2.80
2019-01-14T17:09:21.273Z,3.10
2019-01-14T17:11:51.185Z,2.70
2019-01-14T17:14:21.205Z,2.67
2019-01-14T17:16:51.119Z,3.07
2019-01-14T17:19:21.026Z,2.60
2019-01-14T17:21:51.034Z,3.30
2019-01-14T17:24:20.948Z,4.50
2019-01-14T17:26:51.156Z,3.60
2019-01-14T17:29:21.071Z,3.20
2019-01-14T17:31:51.082Z,3.20
2019-01-14T17:34:20.997Z,3.43
2019-01-14T17:36:51.278Z,4.23
2019-01-14T17:39:21.411Z,4.40
2019-01-14T17:41:52.103Z,4.33
2019-01-14T17:44:22.029Z,3.87
2019-01-14T17:46:52.135Z,4.70
2019-01-14T17:49:22.051Z,4.50
2019-01-14T17:51:51.963Z,4.30
2019-01-14T17:54:21.877Z,4.70
2019-01-14T17:56:51.789Z,3.90
2019-01-14T17:59:22.626Z,4.70
2019-01-14T18:01:52.799Z,4.40
2019-01-14T18:04:23.202Z,4.17
2019-01-14T18:06:53.115Z,3.73
2019-01-14T18:09:23.029Z,4.10
2019-01-14T18:11:54.035Z,4.80
2019-01-14T18:14:23.937Z,4.40
2019-01-14T18:16:54.251Z,4.67
2019-01-14T18:19:24.157Z,5.30
2019-01-14T18:21:54.266Z,5.03
2019-01-14T18:24:24.286Z,5.37
2019-01-14T18:26:54.288Z,5.10
2019-01-14T18:29:24.260Z,5.00
2019-01-14T18:31:54.339Z,5.60
2019-01-14T18:34:24.554Z,9.20
2019-01-14T18:36:54.638Z,6.23
2019-01-14T18:39:24.545Z,3.93
2019-01-14T18:41:54.960Z,7.10
2019-01-14T18:44:25.361Z,6.57
2019-01-14T18:46:55.495Z,5.97
2019-01-14T18:49:25.476Z,5.87
2019-01-14T18:51:55.696Z,4.87
2019-01-14T18:54:25.669Z,4.70
2019-01-14T18:56:55.551Z,5.20
2019-01-14T18:59:25.621Z,11.33
2019-01-14T19:01:55.902Z,7.20
2019-01-14T19:04:26.364Z,4.90
2019-01-14T19:06:56.655Z,4.33
2019-01-14T19:09:27.548Z,4.43
2019-01-14T19:11:57.447Z,4.57
2019-01-14T19:14:27.342Z,4.57
2019-01-14T19:16:57.277Z,4.63
2019-01-14T19:19:27.892Z,4.70
2019-01-14T19:21:57.933Z,6.23
2019-01-14T19:24:27.992Z,6.10
2019-01-14T19:26:58.013Z,6.63
2019-01-14T19:29:28.128Z,5.60
2019-01-14T19:31:58.409Z,5.23
2019-01-14T19:34:28.734Z,4.30
2019-01-14T19:36:58.800Z,4.70
2019-01-14T19:39:28.924Z,4.00
2019-01-14T19:41:59.359Z,4.23
2019-01-14T19:44:29.412Z,3.60
2019-01-14T19:46:59.686Z,3.20
2019-01-14T19:49:29.785Z,3.80
2019-01-14T19:52:00.440Z,4.00
2019-01-14T19:54:30.708Z,5.37
2019-01-14T19:57:01.104Z,7.00
2019-01-14T19:59:31.015Z,7.57
2019-01-14T20:02:01.739Z,11.50
2019-01-14T20:04:32.610Z,6.60
2019-01-14T20:07:02.817Z,5.70
2019-01-14T20:09:32.926Z,4.97
2019-01-14T20:12:02.922Z,4.30
2019-01-14T20:14:32.959Z,4.47
2019-01-14T20:17:03.182Z,3.87
2019-01-14T20:19:33.266Z,4.40
2019-01-14T20:22:05.018Z,3.77
2019-01-14T20:24:35.454Z,4.03
2019-01-14T20:27:06.674Z,3.70
2019-01-14T20:29:36.659Z,3.70
2019-01-14T20:32:06.567Z,3.30
2019-01-14T20:34:36.677Z,3.87
2019-01-14T20:37:09.383Z,3.53
2019-01-14T20:39:39.771Z,3.93
2019-01-14T20:42:10.725Z,3.90
2019-01-14T20:44:40.657Z,3.87
2019-01-14T20:47:11.358Z,3.33
2019-01-14T20:49:42.088Z,2.83
2019-01-14T20:52:12.299Z,3.13
2019-01-14T20:54:44.209Z,3.40
2019-01-14T20:57:14.467Z,3.10
2019-01-14T20:59:44.461Z,3.30
2019-01-14T21:02:14.541Z,3.50
2019-01-14T21:04:45.477Z,3.47
2019-01-14T21:07:15.478Z,3.87
2019-01-14T21:09:45.612Z,3.90
2019-01-14T21:12:16.290Z,4.10
2019-01-14T21:14:47.082Z,3.70
2019-01-14T21:17:17.110Z,3.60
2019-01-14T21:19:47.246Z,4.43
2019-01-14T21:22:17.615Z,4.00
2019-01-14T21:24:48.104Z,3.30
2019-01-14T21:27:18.202Z,3.10
2019-01-14T21:29:48.236Z,3.23
2019-01-14T21:32:18.248Z,4.00
2019-01-14T21:34:48.870Z,3.80
2019-01-14T21:37:18.862Z,3.83
2019-01-14T21:39:48.871Z,4.90
2019-01-14T21:42:18.987Z,4.40
2019-01-14T21:44:49.445Z,5.13
2019-01-14T21:47:19.594Z,4.50
2019-01-14T21:49:49.515Z,5.20
2019-01-14T21:52:19.415Z,4.80
2019-01-14T21:54:49.336Z,4.67
2019-01-14T21:57:19.249Z,4.00
2019-01-14T21:59:49.852Z,4.07
2019-01-14T22:02:19.863Z,3.93
2019-01-14T22:04:49.676Z,3.73
2019-01-14T22:07:20.160Z,4.00
2019-01-14T22:09:50.190Z,4.07
2019-01-14T22:12:20.312Z,4.30
2019-01-14T22:14:50.817Z,5.20
2019-01-14T22:17:20.827Z,4.27
2019-01-14T22:19:50.925Z,4.60
2019-01-14T22:22:21.431Z,3.87
2019-01-14T22:24:51.392Z,4.13
2019-01-14T22:27:21.649Z,4.07
2019-01-14T22:29:51.666Z,4.33
2019-01-14T22:32:21.686Z,4.23
2019-01-14T22:34:51.783Z,4.80
2019-01-14T22:37:21.990Z,4.63
2019-01-14T22:39:51.999Z,4.43
2019-01-14T22:42:22.116Z,5.37
2019-01-14T22:44:52.128Z,5.37
2019-01-14T22:47:21.933Z,5.10
2019-01-14T22:49:52.048Z,5.03
2019-01-14T22:52:22.062Z,4.70
2019-01-14T22:54:52.416Z,5.30
2019-01-14T22:57:22.384Z,5.33
2019-01-14T22:59:52.177Z,5.13
2019-01-14T23:02:22.408Z,6.23
2019-01-14T23:04:52.197Z,5.20
2019-01-14T23:07:22.130Z,4.73
2019-01-14T23:09:52.203Z,5.50
2019-01-14T23:12:22.152Z,5.30
2019-01-14T23:14:52.761Z,5.20
2019-01-14T23:17:22.670Z,4.70
2019-01-14T23:19:53.172Z,4.63
2019-01-14T23:22:23.084Z,4.30
2019-01-14T23:24:52.997Z,4.07
2019-01-14T23:27:22.909Z,4.30
2019-01-14T23:29:53.358Z,3.63
2019-01-14T23:32:23.623Z,4.37
2019-01-14T23:34:53.536Z,4.20
2019-01-14T23:37:23.546Z,4.83
2019-01-14T23:39:53.655Z,4.40
2019-01-14T23:42:23.746Z,4.53
2019-01-14T23:44:53.546Z,4.23
2019-01-14T23:47:23.687Z,5.10
2019-01-14T23:49:53.655Z,4.47
2019-01-14T23:52:23.615Z,4.63
2019-01-14T23:54:53.826Z,4.70
2019-01-14T23:57:24.232Z,4.30
2019-01-14T23:59:54.141Z,4.23
